createdAt,value
2023-05-10T00:00:57.323Z,519.00
2023-05-10T00:01:57.276Z,520.00
2023-05-10T00:02:57.269Z,522.00
2023-05-10T00:03:57.182Z,525.00
2023-05-10T00:04:57.046Z,526.00
2023-05-10T00:05:56.985Z,520.00
2023-05-10T00:06:56.919Z,518.00
2023-05-10T00:07:56.850Z,519.00
2023-05-10T00:08:56.783Z,520.00
2023-05-10T00:09:56.724Z,522.00
2023-05-10T00:10:56.650Z,522.00
2023-05-10T00:11:56.595Z,523.00
2023-05-10T00:12:56.570Z,522.00
2023-05-10T00:13:56.460Z,518.00
2023-05-10T00:14:56.392Z,518.00
2023-05-10T00:15:56.352Z,520.00
2023-05-10T00:16:56.290Z,523.00
2023-05-10T00:17:56.232Z,523.00
2023-05-10T00:18:56.149Z,522.00
2023-05-10T00:19:56.072Z,525.00
2023-05-10T00:20:56.009Z,524.00
2023-05-10T00:21:55.947Z,525.00
2023-05-10T00:22:55.881Z,527.00
2023-05-10T00:23:55.817Z,527.00
2023-05-10T00:24:55.757Z,526.00
2023-05-10T00:25:55.684Z,528.00
2023-05-10T00:26:55.615Z,528.00
2023-05-10T00:27:55.555Z,525.00
2023-05-10T00:28:55.493Z,524.00
2023-05-10T00:29:55.426Z,527.00
2023-05-10T00:30:55.362Z,532.00
2023-05-10T00:31:55.351Z,532.00
2023-05-10T00:32:55.303Z,534.00
2023-05-10T00:33:55.185Z,533.00
2023-05-10T00:34:55.108Z,531.00
2023-05-10T00:35:55.056Z,533.00
2023-05-10T00:36:54.996Z,536.00
2023-05-10T00:37:54.921Z,533.00
2023-05-10T00:38:54.879Z,533.00
2023-05-10T00:39:54.798Z,535.00
2023-05-10T00:40:54.752Z,534.00
2023-05-10T00:41:54.688Z,536.00
2023-05-10T00:42:54.618Z,535.00
2023-05-10T00:43:54.576Z,535.00
2023-05-10T00:44:54.492Z,534.00
2023-05-10T00:45:54.432Z,534.00
2023-05-10T00:46:54.363Z,537.00
2023-05-10T00:47:54.348Z,536.00
2023-05-10T00:48:54.223Z,539.00
2023-05-10T00:49:54.075Z,537.00
2023-05-10T00:50:53.953Z,537.00
2023-05-10T00:51:53.843Z,537.00
2023-05-10T00:52:53.745Z,537.00
2023-05-10T00:53:53.621Z,537.00
2023-05-10T00:54:53.499Z,535.00
2023-05-10T00:55:53.391Z,532.00
2023-05-10T00:56:53.270Z,531.00
2023-05-10T00:57:53.158Z,529.00
2023-05-10T00:58:53.048Z,529.00
2023-05-10T00:59:52.932Z,531.00
2023-05-10T01:00:52.860Z,530.00
2023-05-10T01:01:52.841Z,531.00
2023-05-10T01:02:52.757Z,529.00
2023-05-10T01:03:52.693Z,530.00
2023-05-10T01:04:52.628Z,531.00
2023-05-10T01:05:52.548Z,529.00
2023-05-10T01:06:52.491Z,528.00
2023-05-10T01:07:52.425Z,528.00
2023-05-10T01:08:52.376Z,526.00
2023-05-10T01:09:52.316Z,526.00
2023-05-10T01:10:52.242Z,529.00
2023-05-10T01:11:52.230Z,529.00
2023-05-10T01:12:52.238Z,529.00
2023-05-10T01:13:52.071Z,527.00
2023-05-10T01:14:51.994Z,527.00
2023-05-10T01:15:51.968Z,527.00
2023-05-10T01:16:51.866Z,527.00
2023-05-10T01:17:51.841Z,528.00
2023-05-10T01:18:51.732Z,528.00
2023-05-10T01:19:51.657Z,530.00
2023-05-10T01:20:51.603Z,529.00
2023-05-10T01:21:51.537Z,529.00
2023-05-10T01:22:51.479Z,527.00
2023-05-10T01:23:51.424Z,525.00
2023-05-10T01:24:51.360Z,523.00
2023-05-10T01:25:51.292Z,523.00
2023-05-10T01:26:51.230Z,524.00
2023-05-10T01:27:51.178Z,525.00
2023-05-10T01:28:51.131Z,524.00
2023-05-10T01:30:01.388Z,526.00
2023-05-10T01:30:51.943Z,525.00
2023-05-10T01:31:50.889Z,526.00
2023-05-10T01:32:50.804Z,529.00
2023-05-10T01:33:50.607Z,527.00
2023-05-10T01:34:50.481Z,529.00
2023-05-10T01:35:50.389Z,530.00
2023-05-10T01:36:50.269Z,531.00
2023-05-10T01:37:50.158Z,531.00
2023-05-10T01:38:50.063Z,529.00
2023-05-10T01:39:49.931Z,528.00
2023-05-10T01:40:49.819Z,528.00
2023-05-10T01:41:49.716Z,529.00
2023-05-10T01:42:49.655Z,529.00
2023-05-10T01:43:49.611Z,529.00
2023-05-10T01:44:49.531Z,528.00
2023-05-10T01:45:49.470Z,528.00
2023-05-10T01:46:49.449Z,527.00
2023-05-10T01:47:49.370Z,527.00
2023-05-10T01:48:49.292Z,527.00
2023-05-10T01:49:49.233Z,528.00
2023-05-10T01:50:49.180Z,528.00
2023-05-10T01:51:49.164Z,526.00
2023-05-10T01:52:49.071Z,524.00
2023-05-10T01:53:49.012Z,525.00
2023-05-10T01:54:48.943Z,526.00
2023-05-10T01:55:48.881Z,527.00
2023-05-10T01:56:48.804Z,529.00
2023-05-10T01:57:48.762Z,526.00
2023-05-10T01:58:48.712Z,528.00
2023-05-10T01:59:48.627Z,530.00
2023-05-10T02:00:48.578Z,535.00
2023-05-10T02:01:48.508Z,535.00
2023-05-10T02:02:48.466Z,534.00
2023-05-10T02:03:48.399Z,531.00
2023-05-10T02:04:48.324Z,529.00
2023-05-10T02:05:48.271Z,528.00
2023-05-10T02:06:48.205Z,528.00
2023-05-10T02:07:48.145Z,527.00
2023-05-10T02:08:48.089Z,527.00
2023-05-10T02:09:48.031Z,528.00
2023-05-10T02:10:47.983Z,530.00
2023-05-10T02:11:47.916Z,527.00
2023-05-10T02:12:47.914Z,525.00
2023-05-10T02:13:47.801Z,525.00
2023-05-10T02:14:47.753Z,525.00
2023-05-10T02:15:47.671Z,524.00
2023-05-10T02:16:47.729Z,523.00
2023-05-10T02:17:47.626Z,525.00
2023-05-10T02:18:47.486Z,526.00
2023-05-10T02:19:47.468Z,527.00
2023-05-10T02:20:47.366Z,525.00
2023-05-10T02:21:47.311Z,524.00
2023-05-10T02:22:47.248Z,524.00
2023-05-10T02:23:47.197Z,525.00
2023-05-10T02:24:47.137Z,523.00
2023-05-10T02:25:47.076Z,524.00
2023-05-10T02:26:47.010Z,523.00
2023-05-10T02:27:46.967Z,523.00
2023-05-10T02:28:46.878Z,525.00
2023-05-10T02:29:46.836Z,525.00
2023-05-10T02:30:46.764Z,527.00
2023-05-10T02:31:46.749Z,527.00
2023-05-10T02:32:46.698Z,529.00
2023-05-10T02:33:46.598Z,529.00
2023-05-10T02:34:46.534Z,526.00
2023-05-10T02:35:46.476Z,529.00
2023-05-10T02:36:46.417Z,530.00
2023-05-10T02:37:46.354Z,531.00
2023-05-10T02:38:46.295Z,530.00
2023-05-10T02:39:46.239Z,526.00
2023-05-10T02:40:46.176Z,525.00
2023-05-10T02:41:46.159Z,521.00
2023-05-10T02:42:46.052Z,518.00
2023-05-10T02:43:46.000Z,519.00
2023-05-10T02:44:45.944Z,520.00
2023-05-10T02:45:45.887Z,522.00
2023-05-10T02:46:45.820Z,523.00
2023-05-10T02:47:45.853Z,523.00
2023-05-10T02:48:45.711Z,523.00
2023-05-10T02:49:45.658Z,520.00
2023-05-10T02:50:45.603Z,518.00
2023-05-10T02:51:45.551Z,514.00
2023-05-10T02:52:45.491Z,514.00
2023-05-10T02:53:45.429Z,519.00
2023-05-10T02:54:45.385Z,519.00
2023-05-10T02:55:45.326Z,519.00
2023-05-10T02:56:45.266Z,519.00
2023-05-10T02:57:45.226Z,522.00
2023-05-10T02:58:45.165Z,521.00
2023-05-10T02:59:45.107Z,521.00
2023-05-10T03:00:45.051Z,521.00
2023-05-10T03:01:45.041Z,520.00
2023-05-10T03:02:44.942Z,519.00
2023-05-10T03:03:44.893Z,516.00
2023-05-10T03:04:44.849Z,515.00
2023-05-10T03:05:44.779Z,513.00
2023-05-10T03:06:44.720Z,512.00
2023-05-10T03:07:44.665Z,510.00
2023-05-10T03:08:44.612Z,504.00
2023-05-10T03:09:44.562Z,499.00
2023-05-10T03:10:44.525Z,494.00
2023-05-10T03:11:44.476Z,492.00
2023-05-10T03:12:44.436Z,487.00
2023-05-10T03:13:44.371Z,486.00
2023-05-10T03:14:44.253Z,484.00
2023-05-10T03:15:44.180Z,483.00
2023-05-10T03:16:44.886Z,479.00
2023-05-10T03:17:43.951Z,477.00
2023-05-10T03:18:43.800Z,472.00
2023-05-10T03:19:43.691Z,474.00
2023-05-10T03:20:43.569Z,474.00
2023-05-10T03:21:43.463Z,471.00
2023-05-10T03:22:43.375Z,470.00
2023-05-10T03:23:43.328Z,471.00
2023-05-10T03:24:43.275Z,472.00
2023-05-10T03:25:43.213Z,471.00
2023-05-10T03:26:43.130Z,471.00
2023-05-10T03:27:43.059Z,469.00
2023-05-10T03:28:42.988Z,470.00
2023-05-10T03:29:42.882Z,469.00
2023-05-10T03:30:42.785Z,466.00
2023-05-10T03:33:01.766Z,459.00
2023-05-10T03:34:01.732Z,451.00
2023-05-10T03:35:01.733Z,453.00
2023-05-10T03:36:01.735Z,452.00
2023-05-10T03:37:01.748Z,451.00
2023-05-10T03:38:01.745Z,456.00
2023-05-10T03:39:01.769Z,454.00
2023-05-10T03:40:01.767Z,455.00
2023-05-10T03:41:01.769Z,451.00
2023-05-10T03:42:01.773Z,450.00
2023-05-10T03:43:01.796Z,451.00
2023-05-10T03:44:01.794Z,451.00
2023-05-10T03:45:01.797Z,454.00
2023-05-10T03:46:01.794Z,452.00
2023-05-10T03:47:01.920Z,454.00
2023-05-10T03:48:01.864Z,453.00
2023-05-10T03:49:01.826Z,453.00
2023-05-10T03:50:01.831Z,455.00
2023-05-10T03:51:01.833Z,455.00
2023-05-10T03:52:01.854Z,454.00
2023-05-10T03:53:01.843Z,452.00
2023-05-10T03:54:01.874Z,455.00
2023-05-10T03:55:01.860Z,457.00
2023-05-10T03:56:01.871Z,458.00
2023-05-10T03:57:01.876Z,454.00
2023-05-10T03:58:01.870Z,450.00
2023-05-10T03:59:01.876Z,447.00
2023-05-10T04:00:01.884Z,451.00
2023-05-10T04:01:01.886Z,449.00
2023-05-10T04:02:01.932Z,446.00
2023-05-10T04:03:01.966Z,449.00
2023-05-10T04:04:01.972Z,447.00
2023-05-10T04:05:01.913Z,450.00
2023-05-10T04:06:02.064Z,449.00
2023-05-10T04:07:01.925Z,451.00
2023-05-10T04:08:01.924Z,451.00
2023-05-10T04:09:01.932Z,452.00
2023-05-10T04:10:01.944Z,452.00
2023-05-10T04:11:01.952Z,453.00
2023-05-10T04:12:01.965Z,455.00
2023-05-10T04:13:01.996Z,453.00
2023-05-10T04:14:01.970Z,454.00
2023-05-10T04:15:01.972Z,456.00
2023-05-10T04:16:01.988Z,454.00
2023-05-10T04:17:02.285Z,456.00
2023-05-10T04:18:02.062Z,457.00
2023-05-10T04:19:02.014Z,456.00
2023-05-10T04:20:02.042Z,456.00
2023-05-10T04:21:02.017Z,456.00
2023-05-10T04:22:02.038Z,453.00
2023-05-10T04:23:02.034Z,452.00
2023-05-10T04:24:02.056Z,452.00
2023-05-10T04:25:02.078Z,453.00
2023-05-10T04:26:02.054Z,450.00
2023-05-10T04:27:02.068Z,451.00
2023-05-10T04:28:02.060Z,450.00
2023-05-10T04:29:02.094Z,449.00
2023-05-10T04:30:02.091Z,448.00
2023-05-10T04:31:02.169Z,447.00
2023-05-10T04:32:02.099Z,447.00
2023-05-10T04:33:02.145Z,448.00
2023-05-10T04:34:02.110Z,448.00
2023-05-10T04:35:02.104Z,451.00
2023-05-10T04:36:02.130Z,451.00
2023-05-10T04:37:02.109Z,450.00
2023-05-10T04:38:02.165Z,454.00
2023-05-10T04:39:02.130Z,453.00
2023-05-10T04:40:02.171Z,453.00
2023-05-10T04:41:02.145Z,454.00
2023-05-10T04:42:02.169Z,450.00
2023-05-10T04:43:02.147Z,452.00
2023-05-10T04:44:02.157Z,452.00
2023-05-10T04:45:02.161Z,453.00
2023-05-10T04:46:02.184Z,452.00
2023-05-10T04:47:02.162Z,453.00
2023-05-10T04:48:02.192Z,455.00
2023-05-10T04:49:02.172Z,457.00
2023-05-10T04:50:02.202Z,455.00
2023-05-10T04:51:02.248Z,456.00
2023-05-10T04:52:02.196Z,460.00
2023-05-10T04:53:02.196Z,458.00
2023-05-10T04:54:06.381Z,457.00
2023-05-10T04:55:02.210Z,456.00
2023-05-10T04:56:02.231Z,458.00
2023-05-10T04:57:02.219Z,459.00
2023-05-10T04:58:02.231Z,461.00
2023-05-10T04:59:02.240Z,460.00
2023-05-10T05:00:02.224Z,461.00
2023-05-10T05:01:02.234Z,466.00
2023-05-10T05:02:02.333Z,464.00
2023-05-10T05:03:02.299Z,460.00
2023-05-10T05:04:02.316Z,461.00
2023-05-10T05:05:02.240Z,460.00
2023-05-10T05:06:02.282Z,464.00
2023-05-10T05:07:02.257Z,463.00
2023-05-10T05:08:02.287Z,463.00
2023-05-10T05:09:02.313Z,461.00
2023-05-10T05:10:02.311Z,464.00
2023-05-10T05:11:02.264Z,466.00
2023-05-10T05:12:02.267Z,466.00
2023-05-10T05:13:02.284Z,465.00
2023-05-10T05:14:02.268Z,465.00
2023-05-10T05:15:02.272Z,462.00
2023-05-10T05:16:02.322Z,463.00
2023-05-10T05:17:02.286Z,463.00
2023-05-10T05:18:02.339Z,460.00
2023-05-10T05:19:02.320Z,461.00
2023-05-10T05:20:02.312Z,460.00
2023-05-10T05:21:02.317Z,459.00
2023-05-10T05:22:02.320Z,460.00
2023-05-10T05:23:02.319Z,461.00
2023-05-10T05:24:02.334Z,462.00
2023-05-10T05:25:02.329Z,464.00
2023-05-10T05:26:02.345Z,465.00
2023-05-10T05:27:02.369Z,462.00
2023-05-10T05:28:02.414Z,460.00
2023-05-10T05:29:02.420Z,459.00
2023-05-10T05:30:02.420Z,461.00
2023-05-10T05:31:02.453Z,464.00
2023-05-10T05:32:02.586Z,479.00
2023-05-10T05:33:02.450Z,507.00
2023-05-10T05:34:02.459Z,538.00
2023-05-10T05:35:02.507Z,564.00
2023-05-10T05:36:02.502Z,576.00
2023-05-10T05:37:02.505Z,579.00
2023-05-10T09:43:58.137Z,926.00
2023-05-10T09:44:58.140Z,916.00
2023-05-10T09:45:58.102Z,911.00
2023-05-10T09:46:58.110Z,904.00
2023-05-10T09:47:58.050Z,901.00
2023-05-10T09:48:57.973Z,889.00
2023-05-10T09:49:57.920Z,865.00
2023-05-10T09:50:57.837Z,863.00
2023-05-10T09:51:57.755Z,862.00
2023-05-10T09:52:57.689Z,862.00
2023-05-10T09:53:57.611Z,855.00
2023-05-10T09:54:57.510Z,850.00
2023-05-10T09:55:57.441Z,798.00
2023-05-10T09:56:57.351Z,793.00
2023-05-10T09:57:57.312Z,802.00
2023-05-10T09:58:57.182Z,804.00
2023-05-10T09:59:57.115Z,806.00
2023-05-10T10:00:57.228Z,809.00
2023-05-10T10:01:57.141Z,814.00
2023-05-10T10:02:56.924Z,810.00
2023-05-10T10:03:56.808Z,813.00
2023-05-10T10:04:56.743Z,808.00
2023-05-10T10:05:56.639Z,788.00
2023-05-10T10:06:56.570Z,786.00
2023-05-10T10:07:56.486Z,786.00
2023-05-10T10:08:56.858Z,790.00
2023-05-10T10:09:56.417Z,792.00
2023-05-10T10:10:56.392Z,795.00
2023-05-10T10:11:56.326Z,805.00
2023-05-10T10:12:56.278Z,836.00
2023-05-10T10:13:56.219Z,833.00
2023-05-10T10:14:56.165Z,819.00
2023-05-10T10:15:56.152Z,815.00
2023-05-10T10:17:07.291Z,813.00
2023-05-10T10:17:57.039Z,811.00
2023-05-10T10:18:55.921Z,811.00
2023-05-10T10:19:55.786Z,808.00
2023-05-10T10:21:03.309Z,803.00
2023-05-10T10:21:55.624Z,797.00
2023-05-10T10:24:15.104Z,805.00
2023-05-10T10:25:15.311Z,809.00
2023-05-10T10:26:15.097Z,817.00
2023-05-10T10:27:15.070Z,825.00
2023-05-10T10:28:15.072Z,827.00
2023-05-10T10:29:15.074Z,829.00
2023-05-10T10:30:15.079Z,834.00
2023-05-10T10:31:15.096Z,837.00
2023-05-10T10:32:15.052Z,838.00
2023-05-10T10:33:27.221Z,842.00
2023-05-10T10:34:15.059Z,856.00
2023-05-10T10:35:15.204Z,870.00
2023-05-10T10:36:15.029Z,866.00
2023-05-10T10:37:15.017Z,868.00
2023-05-10T10:38:15.013Z,870.00
2023-05-10T10:39:15.014Z,869.00
2023-05-10T10:40:14.998Z,873.00
2023-05-10T10:41:15.013Z,865.00
2023-05-10T10:42:14.992Z,870.00
2023-05-10T10:43:15.001Z,822.00
2023-05-10T10:44:14.976Z,850.00
2023-05-10T10:45:15.159Z,867.00
2023-05-10T10:46:15.083Z,870.00
2023-05-10T10:47:14.981Z,879.00
2023-05-10T10:48:14.968Z,886.00
2023-05-10T10:49:14.969Z,934.00
2023-05-10T10:50:15.082Z,918.00
2023-05-10T10:51:14.947Z,915.00
2023-05-10T10:52:14.957Z,904.00
2023-05-10T10:53:14.980Z,895.00
2023-05-10T10:54:14.951Z,891.00
2023-05-10T10:55:15.209Z,891.00
2023-05-10T10:56:15.030Z,885.00
2023-05-10T10:57:14.943Z,860.00
2023-05-10T10:58:14.917Z,857.00
2023-05-10T10:59:14.926Z,864.00
2023-05-10T11:00:14.994Z,865.00
2023-05-10T11:01:15.033Z,872.00
2023-05-10T11:02:14.921Z,893.00
2023-05-10T11:03:14.959Z,903.00
2023-05-10T11:04:14.940Z,908.00
2023-05-10T11:05:15.069Z,909.00
2023-05-10T11:06:14.933Z,891.00
2023-05-10T11:07:14.949Z,787.00
2023-05-10T11:08:14.911Z,705.00
2023-05-10T11:09:14.909Z,810.00
2023-05-10T11:10:14.926Z,765.00
2023-05-10T11:11:14.970Z,829.00
2023-05-10T11:12:14.909Z,830.00
2023-05-10T11:13:14.902Z,830.00
2023-05-10T11:14:14.898Z,829.00
2023-05-10T11:15:15.044Z,809.00
2023-05-10T11:16:14.926Z,791.00
2023-05-10T11:17:15.010Z,794.00
2023-05-10T11:18:14.888Z,826.00
2023-05-10T11:19:15.019Z,811.00
2023-05-10T11:20:15.318Z,868.00
2023-05-10T11:21:14.884Z,878.00
2023-05-10T11:22:14.888Z,885.00
2023-05-10T11:23:14.883Z,888.00
2023-05-10T11:24:14.910Z,903.00
2023-05-10T11:25:14.929Z,879.00
2023-05-10T11:26:14.903Z,842.00
2023-05-10T11:27:14.829Z,812.00
2023-05-10T11:28:14.845Z,781.00
2023-05-10T11:29:14.925Z,762.00
2023-05-10T11:30:14.942Z,742.00
2023-05-10T11:31:14.896Z,728.00
2023-05-10T11:32:14.833Z,715.00
2023-05-10T11:33:14.801Z,696.00
2023-05-10T11:34:14.809Z,684.00
2023-05-10T11:35:14.797Z,672.00
2023-05-10T11:36:14.808Z,660.00
2023-05-10T11:37:14.791Z,643.00
2023-05-10T11:38:14.804Z,628.00
2023-05-10T11:39:14.812Z,620.00
2023-05-10T11:40:14.867Z,605.00
2023-05-10T11:41:14.767Z,608.00
2023-05-10T11:42:14.769Z,617.00
2023-05-10T11:43:14.799Z,622.00
2023-05-10T11:44:14.827Z,625.00
2023-05-10T11:45:14.860Z,629.00
2023-05-10T11:46:14.892Z,639.00
2023-05-10T11:47:14.899Z,643.00
2023-05-10T11:48:14.956Z,645.00
2023-05-10T11:49:14.937Z,645.00
2023-05-10T11:50:15.207Z,645.00
2023-05-10T11:51:14.997Z,646.00
2023-05-10T11:52:15.011Z,652.00
2023-05-10T11:53:15.041Z,657.00
2023-05-10T11:54:15.053Z,660.00
2023-05-10T11:55:15.079Z,666.00
2023-05-10T11:56:15.075Z,670.00
2023-05-10T11:57:15.083Z,671.00
2023-05-10T11:58:15.098Z,671.00
2023-05-10T11:59:15.104Z,669.00
2023-05-10T12:00:15.366Z,664.00
2023-05-10T12:01:15.138Z,663.00
2023-05-10T12:02:15.183Z,665.00
2023-05-10T12:03:15.211Z,664.00
2023-05-10T12:04:15.352Z,665.00
2023-05-10T12:05:15.181Z,664.00
2023-05-10T12:06:15.199Z,659.00
2023-05-10T12:07:15.216Z,655.00
2023-05-10T12:08:15.244Z,657.00
2023-05-10T12:09:15.277Z,659.00
2023-05-10T12:10:15.633Z,659.00
2023-05-10T12:11:15.241Z,657.00
2023-05-10T12:12:15.224Z,657.00
2023-05-10T12:13:15.234Z,656.00
2023-05-10T12:14:15.226Z,658.00
2023-05-10T12:15:15.205Z,660.00
2023-05-10T12:16:15.274Z,664.00
2023-05-10T12:17:15.181Z,662.00
2023-05-10T12:18:15.219Z,659.00
2023-05-10T12:19:15.183Z,665.00
2023-05-10T12:20:15.480Z,667.00
2023-05-10T12:21:15.155Z,669.00
2023-05-10T12:22:15.142Z,670.00
2023-05-10T12:23:15.136Z,672.00
2023-05-10T12:24:15.148Z,670.00
2023-05-10T12:25:15.117Z,670.00
2023-05-10T12:26:15.111Z,663.00
2023-05-10T12:27:15.093Z,663.00
2023-05-10T12:28:15.097Z,664.00
2023-05-10T12:29:15.081Z,665.00
2023-05-10T12:30:15.392Z,661.00
2023-05-10T12:31:15.109Z,655.00
2023-05-10T12:32:15.099Z,653.00
2023-05-10T12:33:15.113Z,653.00
2023-05-10T12:34:15.063Z,653.00
2023-05-10T12:35:15.044Z,689.00
2023-05-10T12:36:15.032Z,715.00
2023-05-10T12:37:15.011Z,818.00
2023-05-10T12:38:15.022Z,874.00
2023-05-10T12:39:15.242Z,881.00
2023-05-10T12:40:15.337Z,952.00
2023-05-10T12:41:15.136Z,1011.00
2023-05-10T12:42:15.855Z,1003.00
2023-05-10T12:43:14.974Z,982.00
2023-05-10T12:44:14.967Z,753.00
2023-05-10T12:45:14.944Z,619.00
2023-05-10T12:46:14.985Z,657.00
2023-05-10T12:47:14.936Z,640.00
2023-05-10T12:48:14.980Z,595.00
2023-05-10T12:49:14.935Z,588.00
2023-05-10T12:50:15.100Z,574.00
2023-05-10T12:51:14.917Z,567.00
2023-05-10T12:52:14.915Z,566.00
2023-05-10T12:53:14.900Z,566.00
2023-05-10T12:54:14.924Z,570.00
2023-05-10T12:55:14.914Z,567.00
2023-05-10T12:56:14.916Z,559.00
2023-05-10T12:57:14.940Z,557.00
2023-05-10T12:58:31.314Z,556.00
2023-05-10T12:59:16.019Z,548.00
2023-05-10T13:00:15.119Z,548.00
2023-05-10T13:01:15.060Z,551.00
2023-05-10T13:02:15.023Z,551.00
2023-05-10T13:03:15.039Z,553.00
2023-05-10T13:04:15.049Z,555.00
2023-05-10T13:05:15.102Z,553.00
2023-05-10T13:06:15.043Z,550.00
2023-05-10T13:07:15.046Z,547.00
2023-05-10T13:08:15.048Z,548.00
2023-05-10T13:09:15.062Z,603.00
2023-05-10T13:10:15.290Z,612.00
2023-05-10T13:11:15.086Z,605.00
2023-05-10T13:12:15.153Z,607.00
2023-05-10T13:13:15.241Z,603.00
2023-05-10T13:14:15.296Z,605.00
2023-05-10T13:15:15.288Z,604.00
2023-05-10T13:16:15.372Z,609.00
2023-05-10T13:17:15.399Z,636.00
2023-05-10T13:18:15.493Z,634.00
2023-05-10T13:19:15.444Z,682.00
2023-05-10T13:20:15.668Z,675.00
2023-05-10T13:21:15.507Z,672.00
2023-05-10T13:22:18.680Z,671.00
2023-05-10T13:23:16.538Z,669.00
2023-05-10T13:24:15.515Z,706.00
2023-05-10T13:25:15.520Z,698.00
2023-05-10T13:26:15.514Z,738.00
2023-05-10T13:27:15.519Z,782.00
2023-05-10T13:28:15.506Z,789.00
2023-05-10T13:29:15.530Z,794.00
2023-05-10T13:30:15.794Z,804.00
2023-05-10T13:31:15.579Z,794.00
2023-05-10T13:32:15.528Z,797.00
2023-05-10T13:33:15.531Z,795.00
2023-05-10T13:34:15.499Z,782.00
2023-05-10T13:35:15.502Z,757.00
2023-05-10T13:36:15.501Z,739.00
2023-05-10T13:37:15.551Z,730.00
2023-05-10T13:38:15.492Z,727.00
2023-05-10T13:39:15.503Z,729.00
2023-05-10T13:40:15.676Z,728.00
2023-05-10T13:41:15.505Z,772.00
2023-05-10T13:42:15.520Z,752.00
2023-05-10T13:43:15.496Z,742.00
2023-05-10T13:44:15.501Z,753.00
2023-05-10T13:45:15.791Z,740.00
2023-05-10T13:46:15.518Z,770.00
2023-05-10T13:47:15.519Z,766.00
2023-05-10T13:48:15.486Z,748.00
2023-05-10T13:49:15.487Z,720.00
2023-05-10T13:50:15.491Z,716.00
2023-05-10T13:51:15.497Z,720.00
2023-05-10T13:52:15.480Z,716.00
2023-05-10T13:53:15.488Z,710.00
2023-05-10T13:54:15.468Z,706.00
2023-05-10T13:55:15.616Z,699.00
2023-05-10T13:56:15.485Z,694.00
2023-05-10T13:57:15.475Z,691.00
2023-05-10T13:58:15.480Z,694.00
2023-05-10T13:59:15.476Z,684.00
2023-05-10T14:00:15.461Z,679.00
2023-05-10T14:01:15.547Z,676.00
2023-05-10T14:02:15.539Z,680.00
2023-05-10T14:03:15.506Z,666.00
2023-05-10T14:04:15.446Z,662.00
2023-05-10T14:05:15.569Z,664.00
2023-05-10T14:06:15.451Z,667.00
2023-05-10T14:07:15.521Z,670.00
2023-05-10T14:08:15.461Z,692.00
2023-05-10T14:09:15.508Z,698.00
2023-05-10T14:10:15.512Z,694.00
2023-05-10T14:11:15.467Z,779.00
2023-05-10T14:12:15.500Z,732.00
2023-05-10T14:13:15.481Z,721.00
2023-05-10T14:14:15.486Z,715.00
2023-05-10T14:15:15.583Z,716.00
2023-05-10T14:16:15.534Z,717.00
2023-05-10T14:17:15.487Z,694.00
2023-05-10T14:18:15.469Z,680.00
2023-05-10T14:19:15.476Z,669.00
2023-05-10T14:20:15.477Z,725.00
2023-05-10T14:21:15.475Z,710.00
2023-05-10T14:22:15.491Z,686.00
2023-05-10T14:23:15.471Z,609.00
2023-05-10T14:24:15.503Z,644.00
2023-05-10T14:25:15.749Z,647.00
2023-05-10T14:26:15.495Z,649.00
2023-05-10T14:27:15.491Z,655.00
2023-05-10T14:28:15.553Z,663.00
2023-05-10T14:29:15.480Z,670.00
2023-05-10T14:30:15.475Z,672.00
2023-05-10T14:31:15.481Z,672.00
2023-05-10T14:32:15.528Z,670.00
2023-05-10T14:33:15.474Z,663.00
2023-05-10T14:34:15.478Z,668.00
2023-05-10T14:35:16.951Z,666.00
2023-05-10T14:36:15.470Z,661.00
2023-05-10T14:37:15.489Z,659.00
2023-05-10T14:38:15.476Z,654.00
2023-05-10T14:39:15.478Z,650.00
2023-05-10T14:40:15.478Z,648.00
2023-05-10T14:41:15.492Z,646.00
2023-05-10T14:42:15.496Z,645.00
2023-05-10T14:43:15.487Z,644.00
2023-05-10T14:44:15.484Z,642.00
2023-05-10T14:45:15.629Z,640.00
2023-05-10T14:46:15.491Z,639.00
2023-05-10T14:47:15.498Z,636.00
2023-05-10T14:48:15.481Z,633.00
2023-05-10T14:49:15.484Z,632.00
2023-05-10T14:50:28.285Z,631.00
2023-05-10T14:51:16.465Z,629.00
2023-05-10T14:52:15.479Z,628.00
2023-05-10T14:53:15.459Z,627.00
2023-05-10T14:54:15.445Z,623.00
2023-05-10T14:55:15.674Z,618.00
2023-05-10T14:56:15.452Z,619.00
2023-05-10T14:57:15.477Z,618.00
2023-05-10T14:58:15.468Z,619.00
2023-05-10T14:59:15.514Z,618.00
2023-05-10T15:00:15.804Z,620.00
2023-05-10T15:01:15.647Z,620.00
2023-05-10T15:02:15.699Z,620.00
2023-05-10T15:03:15.832Z,622.00
2023-05-10T15:04:15.731Z,621.00
2023-05-10T15:05:16.007Z,619.00
2023-05-10T15:06:15.734Z,619.00
2023-05-10T15:07:15.736Z,617.00
2023-05-10T15:08:15.730Z,616.00
2023-05-10T15:09:15.722Z,616.00
2023-05-10T15:10:15.757Z,614.00
2023-05-10T15:11:15.735Z,614.00
2023-05-10T15:12:15.763Z,620.00
2023-05-10T15:13:15.839Z,619.00
2023-05-10T15:14:15.883Z,621.00
2023-05-10T15:15:16.181Z,619.00
2023-05-10T15:16:16.080Z,619.00
2023-05-10T15:17:16.008Z,620.00
2023-05-10T15:18:16.067Z,620.00
2023-05-10T15:19:15.995Z,620.00
2023-05-10T15:20:15.994Z,621.00
2023-05-10T15:21:15.997Z,623.00
2023-05-10T15:22:15.993Z,627.00
2023-05-10T15:23:15.986Z,627.00
2023-05-10T15:24:15.988Z,626.00
2023-05-10T15:25:16.154Z,626.00
2023-05-10T15:26:15.984Z,626.00
2023-05-10T15:27:15.996Z,628.00
2023-05-10T15:28:16.041Z,627.00
2023-05-10T15:29:16.100Z,622.00
2023-05-10T15:30:16.158Z,622.00
2023-05-10T15:31:16.204Z,622.00
2023-05-10T15:32:16.157Z,624.00
2023-05-10T15:33:16.167Z,624.00
2023-05-10T15:34:16.155Z,623.00
2023-05-10T15:35:16.305Z,624.00
2023-05-10T15:36:16.156Z,626.00
2023-05-10T15:37:16.164Z,625.00
2023-05-10T15:38:16.148Z,624.00
2023-05-10T15:39:16.161Z,625.00
2023-05-10T15:40:16.163Z,622.00
2023-05-10T15:41:16.151Z,621.00
2023-05-10T15:42:16.145Z,625.00
2023-05-10T15:43:16.149Z,627.00
2023-05-10T15:44:16.168Z,625.00
2023-05-10T15:45:16.672Z,624.00
2023-05-10T15:46:16.320Z,623.00
2023-05-10T15:47:16.309Z,627.00
2023-05-10T15:48:16.350Z,627.00
2023-05-10T15:49:16.380Z,629.00
2023-05-10T15:50:16.423Z,630.00
2023-05-10T15:51:16.472Z,632.00
2023-05-10T15:52:16.502Z,630.00
2023-05-10T15:53:16.555Z,633.00
2023-05-10T15:54:16.606Z,633.00
2023-05-10T15:55:16.800Z,633.00
2023-05-10T15:56:16.692Z,636.00
2023-05-10T15:57:16.752Z,635.00
2023-05-10T15:58:16.796Z,637.00
2023-05-10T15:59:16.812Z,638.00
2023-05-10T16:00:16.866Z,638.00
2023-05-10T16:01:16.954Z,638.00
2023-05-10T16:02:16.982Z,643.00
2023-05-10T16:03:17.002Z,644.00
2023-05-10T16:04:17.029Z,644.00
2023-05-10T16:05:17.324Z,641.00
2023-05-10T16:06:17.129Z,641.00
2023-05-10T16:07:17.153Z,637.00
2023-05-10T16:08:17.194Z,635.00
2023-05-10T16:09:17.231Z,637.00
2023-05-10T16:10:17.268Z,639.00
2023-05-10T16:11:17.314Z,641.00
2023-05-10T16:12:17.348Z,642.00
2023-05-10T16:13:17.389Z,643.00
2023-05-10T16:14:17.422Z,644.00
2023-05-10T16:15:17.738Z,644.00
2023-05-10T16:16:17.542Z,645.00
2023-05-10T16:17:17.666Z,640.00
2023-05-10T16:18:17.669Z,641.00
2023-05-10T16:19:17.657Z,642.00
2023-05-10T16:20:17.655Z,638.00
2023-05-10T16:21:17.686Z,642.00
2023-05-10T16:22:17.741Z,639.00
2023-05-10T16:23:17.779Z,637.00
2023-05-10T16:24:17.793Z,639.00
2023-05-10T16:25:18.116Z,644.00
2023-05-10T16:26:17.877Z,644.00
2023-05-10T16:27:17.920Z,644.00
2023-05-10T16:28:17.940Z,647.00
2023-05-10T16:29:17.972Z,648.00
2023-05-10T16:30:18.009Z,651.00
2023-05-10T16:31:18.088Z,653.00
2023-05-10T16:32:18.076Z,652.00
2023-05-10T16:33:18.115Z,652.00
2023-05-10T16:34:18.134Z,653.00
2023-05-10T16:35:18.376Z,656.00
2023-05-10T16:36:18.209Z,656.00
2023-05-10T16:37:18.252Z,651.00